sensor_id;sensor_type;location;lat;lon;timestamp;P1;durP1;ratioP1;P2;durP2;ratioP2
20772;SDS011;10546;50.674;4.616;2023-05-06T04:46:18;6.80;;;4.10;;
20772;SDS011;10546;50.674;4.616;2023-05-06T04:48:44;4.87;;;3.40;;
20772;SDS011;10546;50.674;4.616;2023-05-06T04:51:10;4.03;;;3.00;;
20772;SDS011;10546;50.674;4.616;2023-05-06T04:53:36;4.87;;;3.40;;
20772;SDS011;10546;50.674;4.616;2023-05-06T04:56:01;6.13;;;3.40;;
20772;SDS011;10546;50.674;4.616;2023-05-06T04:58:27;4.43;;;3.27;;
20772;SDS011;10546;50.674;4.616;2023-05-06T05:00:52;7.28;;;3.47;;
20772;SDS011;10546;50.674;4.616;2023-05-06T05:03:18;8.83;;;3.47;;
20772;SDS011;10546;50.674;4.616;2023-05-06T05:05:44;5.40;;;3.60;;
20772;SDS011;10546;50.674;4.616;2023-05-06T05:08:09;7.35;;;3.20;;
20772;SDS011;10546;50.674;4.616;2023-05-06T05:10:39;4.70;;;3.35;;
20772;SDS011;10546;50.674;4.616;2023-05-06T05:13:06;5.80;;;3.30;;
20772;SDS011;10546;50.674;4.616;2023-05-06T05:15:31;5.53;;;3.20;;
20772;SDS011;10546;50.674;4.616;2023-05-06T05:17:57;5.00;;;3.10;;
20772;SDS011;10546;50.674;4.616;2023-05-06T05:20:23;3.97;;;2.70;;
20772;SDS011;10546;50.674;4.616;2023-05-06T05:22:48;3.95;;;2.60;;
20772;SDS011;10546;50.674;4.616;2023-05-06T05:25:14;3.80;;;2.67;;
20772;SDS011;10546;50.674;4.616;2023-05-06T05:27:40;3.03;;;2.22;;
20772;SDS011;10546;50.674;4.616;2023-05-06T05:30:07;4.25;;;2.50;;
20772;SDS011;10546;50.674;4.616;2023-05-06T05:32:33;3.40;;;2.42;;
20772;SDS011;10546;50.674;4.616;2023-05-06T05:34:58;3.40;;;2.47;;
20772;SDS011;10546;50.674;4.616;2023-05-06T05:37:24;6.57;;;2.42;;
20772;SDS011;10546;50.674;4.616;2023-05-06T05:39:50;3.08;;;2.38;;
20772;SDS011;10546;50.674;4.616;2023-05-06T05:42:15;2.65;;;1.90;;
20772;SDS011;10546;50.674;4.616;2023-05-06T05:44:41;3.25;;;2.20;;
20772;SDS011;10546;50.674;4.616;2023-05-06T05:47:07;1.70;;;1.50;;
20772;SDS011;10546;50.674;4.616;2023-05-06T05:49:32;1.73;;;1.60;;
20772;SDS011;10546;50.674;4.616;2023-05-06T05:51:58;1.95;;;1.70;;
20772;SDS011;10546;50.674;4.616;2023-05-06T05:54:23;2.40;;;1.50;;
20772;SDS011;10546;50.674;4.616;2023-05-06T05:56:49;2.47;;;1.50;;
20772;SDS011;10546;50.674;4.616;2023-05-06T05:59:15;2.47;;;1.55;;
20772;SDS011;10546;50.674;4.616;2023-05-06T06:01:40;2.25;;;1.50;;
20772;SDS011;10546;50.674;4.616;2023-05-06T06:04:06;4.72;;;1.67;;
20772;SDS011;10546;50.674;4.616;2023-05-06T06:06:31;2.00;;;1.52;;
20772;SDS011;10546;50.674;4.616;2023-05-06T06:08:57;1.98;;;1.38;;
20772;SDS011;10546;50.674;4.616;2023-05-06T06:11:23;2.13;;;1.27;;
20772;SDS011;10546;50.674;4.616;2023-05-06T06:13:50;3.90;;;1.73;;
20772;SDS011;10546;50.674;4.616;2023-05-06T06:16:16;3.30;;;1.90;;
20772;SDS011;10546;50.674;4.616;2023-05-06T06:18:42;3.10;;;1.60;;
20772;SDS011;10546;50.674;4.616;2023-05-06T06:21:07;2.25;;;1.50;;
20772;SDS011;10546;50.674;4.616;2023-05-06T06:23:33;2.25;;;1.85;;
20772;SDS011;10546;50.674;4.616;2023-05-06T06:25:58;2.58;;;1.42;;
20772;SDS011;10546;50.674;4.616;2023-05-06T06:28:26;5.75;;;2.60;;
20772;SDS011;10546;50.674;4.616;2023-05-06T06:30:51;4.25;;;2.05;;
20772;SDS011;10546;50.674;4.616;2023-05-06T06:33:17;3.08;;;1.80;;
20772;SDS011;10546;50.674;4.616;2023-05-06T06:35:43;2.17;;;1.67;;
20772;SDS011;10546;50.674;4.616;2023-05-06T06:38:08;3.80;;;1.85;;
20772;SDS011;10546;50.674;4.616;2023-05-06T06:40:34;3.90;;;1.83;;
20772;SDS011;10546;50.674;4.616;2023-05-06T06:43:00;2.65;;;2.00;;
20772;SDS011;10546;50.674;4.616;2023-05-06T06:45:25;3.78;;;2.10;;
20772;SDS011;10546;50.674;4.616;2023-05-06T06:47:51;4.20;;;1.92;;
20772;SDS011;10546;50.674;4.616;2023-05-06T06:50:16;6.03;;;2.30;;
20772;SDS011;10546;50.674;4.616;2023-05-06T06:52:42;3.97;;;2.05;;
20772;SDS011;10546;50.674;4.616;2023-05-06T06:55:08;3.40;;;2.10;;
20772;SDS011;10546;50.674;4.616;2023-05-06T06:57:35;5.97;;;2.20;;
20772;SDS011;10546;50.674;4.616;2023-05-06T07:00:01;6.13;;;2.00;;
20772;SDS011;10546;50.674;4.616;2023-05-06T07:02:27;3.88;;;2.00;;
20772;SDS011;10546;50.674;4.616;2023-05-06T07:04:53;3.85;;;1.92;;
20772;SDS011;10546;50.674;4.616;2023-05-06T07:07:18;3.53;;;2.22;;
20772;SDS011;10546;50.674;4.616;2023-05-06T07:09:44;4.53;;;2.50;;
20772;SDS011;10546;50.674;4.616;2023-05-06T07:12:10;4.97;;;2.55;;
20772;SDS011;10546;50.674;4.616;2023-05-06T07:14:36;7.30;;;3.25;;
20772;SDS011;10546;50.674;4.616;2023-05-06T07:17:01;6.35;;;2.90;;
20772;SDS011;10546;50.674;4.616;2023-05-06T07:19:27;6.45;;;3.35;;
20772;SDS011;10546;50.674;4.616;2023-05-06T07:21:53;5.47;;;3.10;;
20772;SDS011;10546;50.674;4.616;2023-05-06T07:24:19;7.32;;;4.72;;
20772;SDS011;10546;50.674;4.616;2023-05-06T07:26:45;9.75;;;4.20;;
20772;SDS011;10546;50.674;4.616;2023-05-06T07:29:11;7.38;;;4.50;;
20772;SDS011;10546;50.674;4.616;2023-05-06T07:31:37;8.55;;;3.65;;
20772;SDS011;10546;50.674;4.616;2023-05-06T07:34:03;5.55;;;3.90;;
20772;SDS011;10546;50.674;4.616;2023-05-06T07:36:28;4.85;;;3.35;;
20772;SDS011;10546;50.674;4.616;2023-05-06T07:38:59;7.07;;;3.13;;
20772;SDS011;10546;50.674;4.616;2023-05-06T07:41:25;4.97;;;3.42;;
20772;SDS011;10546;50.674;4.616;2023-05-06T07:43:50;6.75;;;3.50;;
20772;SDS011;10546;50.674;4.616;2023-05-06T07:46:16;6.43;;;3.28;;
20772;SDS011;10546;50.674;4.616;2023-05-06T07:48:42;5.68;;;3.28;;
20772;SDS011;10546;50.674;4.616;2023-05-06T07:51:07;6.10;;;2.80;;
20772;SDS011;10546;50.674;4.616;2023-05-06T07:53:33;4.28;;;2.58;;
20772;SDS011;10546;50.674;4.616;2023-05-06T07:55:59;6.30;;;3.20;;
20772;SDS011;10546;50.674;4.616;2023-05-06T07:58:29;5.05;;;3.00;;
20772;SDS011;10546;50.674;4.616;2023-05-06T08:00:55;8.07;;;2.85;;
20772;SDS011;10546;50.674;4.616;2023-05-06T08:03:21;8.20;;;3.35;;
20772;SDS011;10546;50.674;4.616;2023-05-06T08:05:50;4.18;;;2.85;;
20772;SDS011;10546;50.674;4.616;2023-05-06T08:08:17;5.43;;;2.53;;
20772;SDS011;10546;50.674;4.616;2023-05-06T08:10:43;5.00;;;2.33;;
20772;SDS011;10546;50.674;4.616;2023-05-06T08:13:09;3.97;;;1.98;;
20772;SDS011;10546;50.674;4.616;2023-05-06T08:15:35;4.15;;;2.47;;
20772;SDS011;10546;50.674;4.616;2023-05-06T08:18:02;6.20;;;2.55;;
20772;SDS011;10546;50.674;4.616;2023-05-06T08:20:28;3.80;;;2.13;;
20772;SDS011;10546;50.674;4.616;2023-05-06T08:22:53;3.35;;;1.90;;
20772;SDS011;10546;50.674;4.616;2023-05-06T08:25:19;8.75;;;2.13;;
20772;SDS011;10546;50.674;4.616;2023-05-06T08:27:44;4.82;;;2.30;;
20772;SDS011;10546;50.674;4.616;2023-05-06T08:30:10;3.78;;;2.35;;
20772;SDS011;10546;50.674;4.616;2023-05-06T08:32:37;6.85;;;2.60;;
20772;SDS011;10546;50.674;4.616;2023-05-06T08:35:03;4.60;;;2.67;;
20772;SDS011;10546;50.674;4.616;2023-05-06T08:37:30;4.40;;;2.40;;
20772;SDS011;10546;50.674;4.616;2023-05-06T08:39:55;7.07;;;2.30;;
20772;SDS011;10546;50.674;4.616;2023-05-06T08:42:22;4.47;;;2.22;;
20772;SDS011;10546;50.674;4.616;2023-05-06T08:44:50;4.72;;;2.08;;
20772;SDS011;10546;50.674;4.616;2023-05-06T08:47:19;6.03;;;2.40;;
20772;SDS011;10546;50.674;4.616;2023-05-06T08:49:45;4.32;;;2.05;;
20772;SDS011;10546;50.674;4.616;2023-05-06T08:52:12;5.22;;;2.45;;
20772;SDS011;10546;50.674;4.616;2023-05-06T08:54:37;5.88;;;1.90;;
20772;SDS011;10546;50.674;4.616;2023-05-06T08:57:04;4.82;;;2.03;;
20772;SDS011;10546;50.674;4.616;2023-05-06T08:59:35;3.95;;;1.83;;
20772;SDS011;10546;50.674;4.616;2023-05-06T09:02:02;4.00;;;1.95;;
20772;SDS011;10546;50.674;4.616;2023-05-06T09:04:28;5.15;;;1.98;;
20772;SDS011;10546;50.674;4.616;2023-05-06T09:06:57;3.85;;;1.40;;
20772;SDS011;10546;50.674;4.616;2023-05-06T09:09:23;3.97;;;1.50;;
20772;SDS011;10546;50.674;4.616;2023-05-06T09:11:49;7.93;;;1.80;;
20772;SDS011;10546;50.674;4.616;2023-05-06T09:14:21;6.63;;;2.90;;
20772;SDS011;10546;50.674;4.616;2023-05-06T09:16:48;7.65;;;3.53;;
20772;SDS011;10546;50.674;4.616;2023-05-06T09:19:15;4.70;;;2.00;;
20772;SDS011;10546;50.674;4.616;2023-05-06T09:21:42;7.07;;;1.75;;
20772;SDS011;10546;50.674;4.616;2023-05-06T09:24:10;4.40;;;1.70;;
20772;SDS011;10546;50.674;4.616;2023-05-06T09:26:37;4.93;;;1.83;;
20772;SDS011;10546;50.674;4.616;2023-05-06T09:29:05;5.78;;;1.60;;
20772;SDS011;10546;50.674;4.616;2023-05-06T09:31:31;4.63;;;1.63;;
20772;SDS011;10546;50.674;4.616;2023-05-06T09:33:58;2.53;;;1.50;;
20772;SDS011;10546;50.674;4.616;2023-05-06T09:36:25;4.00;;;2.00;;
20772;SDS011;10546;50.674;4.616;2023-05-06T09:38:52;7.30;;;2.13;;
20772;SDS011;10546;50.674;4.616;2023-05-06T09:41:19;4.57;;;1.60;;
20772;SDS011;10546;50.674;4.616;2023-05-06T09:43:46;6.65;;;2.00;;
20772;SDS011;10546;50.674;4.616;2023-05-06T09:46:16;8.50;;;3.20;;
20772;SDS011;10546;50.674;4.616;2023-05-06T09:48:43;7.05;;;1.80;;
20772;SDS011;10546;50.674;4.616;2023-05-06T09:51:10;5.28;;;1.98;;
20772;SDS011;10546;50.674;4.616;2023-05-06T09:53:36;5.07;;;2.20;;
20772;SDS011;10546;50.674;4.616;2023-05-06T09:56:03;5.18;;;1.95;;
20772;SDS011;10546;50.674;4.616;2023-05-06T09:58:30;5.90;;;2.05;;
20772;SDS011;10546;50.674;4.616;2023-05-06T10:00:58;4.45;;;1.50;;
20772;SDS011;10546;50.674;4.616;2023-05-06T10:03:24;5.93;;;1.48;;
20772;SDS011;10546;50.674;4.616;2023-05-06T10:05:51;3.63;;;1.60;;
20772;SDS011;10546;50.674;4.616;2023-05-06T10:08:18;3.67;;;1.73;;
20772;SDS011;10546;50.674;4.616;2023-05-06T10:10:45;3.30;;;1.40;;
20772;SDS011;10546;50.674;4.616;2023-05-06T10:13:13;5.03;;;1.73;;
20772;SDS011;10546;50.674;4.616;2023-05-06T10:15:40;4.35;;;1.70;;
20772;SDS011;10546;50.674;4.616;2023-05-06T10:18:09;7.35;;;2.25;;
20772;SDS011;10546;50.674;4.616;2023-05-06T10:20:35;5.95;;;3.15;;
20772;SDS011;10546;50.674;4.616;2023-05-06T10:23:18;6.80;;;2.35;;
20772;SDS011;10546;50.674;4.616;2023-05-06T10:25:46;4.78;;;1.60;;
20772;SDS011;10546;50.674;4.616;2023-05-06T10:28:16;5.97;;;1.70;;
20772;SDS011;10546;50.674;4.616;2023-05-06T10:30:44;7.03;;;1.92;;
20772;SDS011;10546;50.674;4.616;2023-05-06T10:33:11;5.38;;;2.00;;
20772;SDS011;10546;50.674;4.616;2023-05-06T10:35:41;6.47;;;2.10;;
20772;SDS011;10546;50.674;4.616;2023-05-06T10:40:38;6.75;;;2.10;;
20772;SDS011;10546;50.674;4.616;2023-05-06T10:46:09;5.95;;;1.50;;
20772;SDS011;10546;50.674;4.616;2023-05-06T10:48:36;4.95;;;2.03;;
20772;SDS011;10546;50.674;4.616;2023-05-06T10:51:26;5.93;;;2.33;;
20772;SDS011;10546;50.674;4.616;2023-05-06T10:53:56;5.30;;;1.65;;
20772;SDS011;10546;50.674;4.616;2023-05-06T10:56:22;5.93;;;1.65;;
20772;SDS011;10546;50.674;4.616;2023-05-06T10:58:48;5.00;;;1.92;;
20772;SDS011;10546;50.674;4.616;2023-05-06T11:01:14;5.25;;;1.73;;
20772;SDS011;10546;50.674;4.616;2023-05-06T11:03:48;4.55;;;1.48;;
20772;SDS011;10546;50.674;4.616;2023-05-06T11:06:35;5.22;;;1.85;;
20772;SDS011;10546;50.674;4.616;2023-05-06T11:09:02;6.25;;;2.10;;
20772;SDS011;10546;50.674;4.616;2023-05-06T11:11:47;5.28;;;1.90;;
20772;SDS011;10546;50.674;4.616;2023-05-06T11:14:36;7.63;;;2.45;;
20772;SDS011;10546;50.674;4.616;2023-05-06T11:19:32;8.25;;;1.83;;
20772;SDS011;10546;50.674;4.616;2023-05-06T11:22:00;7.80;;;2.03;;
20772;SDS011;10546;50.674;4.616;2023-05-06T11:24:28;3.03;;;1.70;;
20772;SDS011;10546;50.674;4.616;2023-05-06T11:26:56;8.57;;;2.80;;
20772;SDS011;10546;50.674;4.616;2023-05-06T11:29:24;7.28;;;3.65;;
20772;SDS011;10546;50.674;4.616;2023-05-06T11:31:51;7.53;;;1.70;;
20772;SDS011;10546;50.674;4.616;2023-05-06T11:34:22;6.13;;;1.70;;
20772;SDS011;10546;50.674;4.616;2023-05-06T11:37:03;10.52;;;1.70;;
20772;SDS011;10546;50.674;4.616;2023-05-06T11:39:31;5.22;;;1.58;;
20772;SDS011;10546;50.674;4.616;2023-05-06T11:41:58;6.97;;;1.88;;
20772;SDS011;10546;50.674;4.616;2023-05-06T11:44:27;4.18;;;1.23;;
20772;SDS011;10546;50.674;4.616;2023-05-06T11:46:55;7.53;;;1.80;;
20772;SDS011;10546;50.674;4.616;2023-05-06T11:49:25;6.70;;;2.17;;
20772;SDS011;10546;50.674;4.616;2023-05-06T11:51:51;7.28;;;1.88;;
20772;SDS011;10546;50.674;4.616;2023-05-06T11:54:18;3.78;;;1.90;;
20772;SDS011;10546;50.674;4.616;2023-05-06T11:56:50;5.93;;;1.80;;
20772;SDS011;10546;50.674;4.616;2023-05-06T11:59:25;5.55;;;1.63;;
20772;SDS011;10546;50.674;4.616;2023-05-06T12:01:57;4.78;;;1.95;;
20772;SDS011;10546;50.674;4.616;2023-05-06T12:04:46;4.10;;;2.13;;
20772;SDS011;10546;50.674;4.616;2023-05-06T12:07:14;11.25;;;2.75;;
20772;SDS011;10546;50.674;4.616;2023-05-06T12:09:41;7.00;;;2.38;;
20772;SDS011;10546;50.674;4.616;2023-05-06T12:12:10;7.68;;;2.15;;
20772;SDS011;10546;50.674;4.616;2023-05-06T12:14:39;7.43;;;1.92;;
20772;SDS011;10546;50.674;4.616;2023-05-06T12:17:05;7.18;;;2.00;;
20772;SDS011;10546;50.674;4.616;2023-05-06T12:19:34;6.45;;;2.00;;
20772;SDS011;10546;50.674;4.616;2023-05-06T12:22:19;6.75;;;1.77;;
20772;SDS011;10546;50.674;4.616;2023-05-06T12:24:46;4.28;;;1.58;;
20772;SDS011;10546;50.674;4.616;2023-05-06T12:27:12;5.97;;;1.90;;
20772;SDS011;10546;50.674;4.616;2023-05-06T12:29:38;5.50;;;1.85;;
20772;SDS011;10546;50.674;4.616;2023-05-06T12:32:10;4.68;;;1.52;;
20772;SDS011;10546;50.674;4.616;2023-05-06T12:34:36;4.78;;;1.30;;
20772;SDS011;10546;50.674;4.616;2023-05-06T12:37:03;8.85;;;1.90;;
20772;SDS011;10546;50.674;4.616;2023-05-06T12:39:36;7.25;;;1.90;;
20772;SDS011;10546;50.674;4.616;2023-05-06T12:42:03;4.80;;;1.70;;
20772;SDS011;10546;50.674;4.616;2023-05-06T12:47:05;5.32;;;1.90;;
20772;SDS011;10546;50.674;4.616;2023-05-06T12:49:44;7.05;;;1.95;;
20772;SDS011;10546;50.674;4.616;2023-05-06T12:52:15;8.50;;;2.03;;
20772;SDS011;10546;50.674;4.616;2023-05-06T12:54:42;5.18;;;1.58;;
20772;SDS011;10546;50.674;4.616;2023-05-06T12:57:08;9.77;;;3.70;;
20772;SDS011;10546;50.674;4.616;2023-05-06T12:59:34;10.60;;;2.28;;
20772;SDS011;10546;50.674;4.616;2023-05-06T13:02:00;4.32;;;1.40;;
20772;SDS011;10546;50.674;4.616;2023-05-06T13:04:27;7.18;;;1.80;;
20772;SDS011;10546;50.674;4.616;2023-05-06T13:06:53;5.85;;;1.50;;
20772;SDS011;10546;50.674;4.616;2023-05-06T13:09:19;7.18;;;1.50;;
20772;SDS011;10546;50.674;4.616;2023-05-06T13:11:45;7.20;;;2.10;;
20772;SDS011;10546;50.674;4.616;2023-05-06T13:14:11;5.40;;;1.75;;
20772;SDS011;10546;50.674;4.616;2023-05-06T13:16:37;7.78;;;1.52;;
20772;SDS011;10546;50.674;4.616;2023-05-06T13:19:02;5.80;;;2.10;;
20772;SDS011;10546;50.674;4.616;2023-05-06T13:21:31;7.25;;;2.33;;
20772;SDS011;10546;50.674;4.616;2023-05-06T13:23:57;6.50;;;2.15;;
20772;SDS011;10546;50.674;4.616;2023-05-06T13:26:23;10.57;;;1.90;;
20772;SDS011;10546;50.674;4.616;2023-05-06T13:28:48;2.95;;;1.25;;
20772;SDS011;10546;50.674;4.616;2023-05-06T13:31:15;10.43;;;1.90;;
20772;SDS011;10546;50.674;4.616;2023-05-06T13:33:41;8.10;;;1.63;;
20772;SDS011;10546;50.674;4.616;2023-05-06T13:36:06;6.82;;;1.67;;
20772;SDS011;10546;50.674;4.616;2023-05-06T13:38:32;9.02;;;1.70;;
20772;SDS011;10546;50.674;4.616;2023-05-06T13:40:58;4.18;;;1.40;;
20772;SDS011;10546;50.674;4.616;2023-05-06T13:43:23;5.90;;;1.58;;
20772;SDS011;10546;50.674;4.616;2023-05-06T13:45:49;7.90;;;2.67;;
20772;SDS011;10546;50.674;4.616;2023-05-06T13:48:15;9.15;;;1.83;;
20772;SDS011;10546;50.674;4.616;2023-05-06T13:50:45;9.65;;;1.73;;
20772;SDS011;10546;50.674;4.616;2023-05-06T13:53:11;8.57;;;1.98;;
20772;SDS011;10546;50.674;4.616;2023-05-06T13:55:37;5.82;;;2.85;;
20772;SDS011;10546;50.674;4.616;2023-05-06T13:58:04;8.63;;;2.03;;
20772;SDS011;10546;50.674;4.616;2023-05-06T14:00:30;6.20;;;1.95;;
20772;SDS011;10546;50.674;4.616;2023-05-06T14:02:56;6.38;;;1.55;;
20772;SDS011;10546;50.674;4.616;2023-05-06T14:05:22;7.90;;;1.83;;
20772;SDS011;10546;50.674;4.616;2023-05-06T14:07:47;5.97;;;1.40;;
20772;SDS011;10546;50.674;4.616;2023-05-06T14:10:13;8.07;;;1.85;;
20772;SDS011;10546;50.674;4.616;2023-05-06T14:12:39;7.53;;;1.55;;
20772;SDS011;10546;50.674;4.616;2023-05-06T14:15:06;7.18;;;1.75;;
20772;SDS011;10546;50.674;4.616;2023-05-06T14:17:32;7.32;;;1.98;;
20772;SDS011;10546;50.674;4.616;2023-05-06T14:19:58;8.27;;;1.30;;
20772;SDS011;10546;50.674;4.616;2023-05-06T14:22:23;5.55;;;1.73;;
20772;SDS011;10546;50.674;4.616;2023-05-06T14:24:49;7.43;;;1.40;;
20772;SDS011;10546;50.674;4.616;2023-05-06T14:27:15;7.30;;;1.67;;
20772;SDS011;10546;50.674;4.616;2023-05-06T14:29:40;8.98;;;1.73;;
20772;SDS011;10546;50.674;4.616;2023-05-06T14:32:07;5.03;;;1.50;;
20772;SDS011;10546;50.674;4.616;2023-05-06T14:34:33;6.00;;;1.25;;
20772;SDS011;10546;50.674;4.616;2023-05-06T14:37:00;6.75;;;1.85;;
20772;SDS011;10546;50.674;4.616;2023-05-06T14:39:26;6.13;;;1.70;;
20772;SDS011;10546;50.674;4.616;2023-05-06T14:41:52;9.50;;;2.03;;
20772;SDS011;10546;50.674;4.616;2023-05-06T14:44:17;8.48;;;2.28;;
20772;SDS011;10546;50.674;4.616;2023-05-06T14:46:43;5.32;;;1.67;;
20772;SDS011;10546;50.674;4.616;2023-05-06T14:49:09;10.00;;;2.67;;
20772;SDS011;10546;50.674;4.616;2023-05-06T14:51:35;8.82;;;1.65;;
20772;SDS011;10546;50.674;4.616;2023-05-06T14:54:00;8.93;;;2.08;;
20772;SDS011;10546;50.674;4.616;2023-05-06T14:56:26;6.57;;;1.95;;
20772;SDS011;10546;50.674;4.616;2023-05-06T14:58:51;7.70;;;1.90;;
20772;SDS011;10546;50.674;4.616;2023-05-06T15:01:18;10.70;;;2.17;;
20772;SDS011;10546;50.674;4.616;2023-05-06T15:03:43;9.10;;;2.00;;
20772;SDS011;10546;50.674;4.616;2023-05-06T15:06:09;10.63;;;2.25;;
20772;SDS011;10546;50.674;4.616;2023-05-06T15:08:35;7.85;;;2.40;;
20772;SDS011;10546;50.674;4.616;2023-05-06T15:11:01;7.13;;;1.58;;
20772;SDS011;10546;50.674;4.616;2023-05-06T15:13:27;8.40;;;1.80;;
20772;SDS011;10546;50.674;4.616;2023-05-06T15:15:53;8.65;;;2.03;;
20772;SDS011;10546;50.674;4.616;2023-05-06T15:18:19;8.48;;;2.17;;
20772;SDS011;10546;50.674;4.616;2023-05-06T15:20:45;9.75;;;2.42;;
20772;SDS011;10546;50.674;4.616;2023-05-06T15:23:11;8.30;;;2.20;;
20772;SDS011;10546;50.674;4.616;2023-05-06T15:25:37;6.03;;;1.58;;
20772;SDS011;10546;50.674;4.616;2023-05-06T15:28:03;8.25;;;2.40;;
20772;SDS011;10546;50.674;4.616;2023-05-06T15:30:29;6.90;;;2.00;;
20772;SDS011;10546;50.674;4.616;2023-05-06T15:32:55;5.63;;;1.33;;
20772;SDS011;10546;50.674;4.616;2023-05-06T15:35:21;10.70;;;1.95;;
20772;SDS011;10546;50.674;4.616;2023-05-06T15:37:46;9.65;;;1.98;;
20772;SDS011;10546;50.674;4.616;2023-05-06T15:40:12;10.10;;;2.28;;
20772;SDS011;10546;50.674;4.616;2023-05-06T15:42:38;10.57;;;1.90;;
20772;SDS011;10546;50.674;4.616;2023-05-06T15:45:04;9.05;;;1.92;;
20772;SDS011;10546;50.674;4.616;2023-05-06T15:47:31;4.82;;;1.42;;
20772;SDS011;10546;50.674;4.616;2023-05-06T15:49:56;8.00;;;1.88;;
20772;SDS011;10546;50.674;4.616;2023-05-06T15:52:22;11.25;;;1.83;;
20772;SDS011;10546;50.674;4.616;2023-05-06T15:54:51;10.02;;;2.58;;
20772;SDS011;10546;50.674;4.616;2023-05-06T15:57:17;10.13;;;1.80;;
20772;SDS011;10546;50.674;4.616;2023-05-06T15:59:43;10.15;;;1.70;;
20772;SDS011;10546;50.674;4.616;2023-05-06T16:02:08;9.95;;;2.22;;
20772;SDS011;10546;50.674;4.616;2023-05-06T16:04:34;9.80;;;2.42;;
20772;SDS011;10546;50.674;4.616;2023-05-06T16:07:00;13.63;;;2.63;;
20772;SDS011;10546;50.674;4.616;2023-05-06T16:09:26;10.90;;;2.60;;
20772;SDS011;10546;50.674;4.616;2023-05-06T16:11:51;8.88;;;2.72;;
20772;SDS011;10546;50.674;4.616;2023-05-06T16:14:18;13.27;;;6.68;;
20772;SDS011;10546;50.674;4.616;2023-05-06T16:16:44;12.13;;;3.17;;
20772;SDS011;10546;50.674;4.616;2023-05-06T16:19:10;12.80;;;2.90;;
20772;SDS011;10546;50.674;4.616;2023-05-06T16:21:35;10.90;;;4.25;;
20772;SDS011;10546;50.674;4.616;2023-05-06T16:24:01;11.88;;;2.75;;
20772;SDS011;10546;50.674;4.616;2023-05-06T16:26:27;11.98;;;3.50;;
20772;SDS011;10546;50.674;4.616;2023-05-06T16:28:53;12.80;;;4.88;;
20772;SDS011;10546;50.674;4.616;2023-05-06T16:31:18;18.00;;;8.10;;
20772;SDS011;10546;50.674;4.616;2023-05-06T16:33:44;24.20;;;12.40;;
20772;SDS011;10546;50.674;4.616;2023-05-06T16:36:10;9.80;;;2.17;;
20772;SDS011;10546;50.674;4.616;2023-05-06T16:38:36;7.88;;;2.00;;
20772;SDS011;10546;50.674;4.616;2023-05-06T16:41:02;9.20;;;2.40;;
20772;SDS011;10546;50.674;4.616;2023-05-06T16:43:28;5.55;;;1.90;;
20772;SDS011;10546;50.674;4.616;2023-05-06T16:45:54;11.48;;;2.25;;
20772;SDS011;10546;50.674;4.616;2023-05-06T16:48:19;7.07;;;1.88;;
20772;SDS011;10546;50.674;4.616;2023-05-06T16:50:45;8.00;;;2.08;;
20772;SDS011;10546;50.674;4.616;2023-05-06T16:53:11;8.75;;;1.83;;
20772;SDS011;10546;50.674;4.616;2023-05-06T16:55:37;7.75;;;2.40;;
20772;SDS011;10546;50.674;4.616;2023-05-06T16:58:02;11.02;;;3.10;;
20772;SDS011;10546;50.674;4.616;2023-05-06T17:00:28;5.43;;;2.60;;
20772;SDS011;10546;50.674;4.616;2023-05-06T17:02:55;6.55;;;3.00;;
20772;SDS011;10546;50.674;4.616;2023-05-06T17:05:21;10.55;;;4.00;;
20772;SDS011;10546;50.674;4.616;2023-05-06T17:07:47;22.60;;;10.77;;
20772;SDS011;10546;50.674;4.616;2023-05-06T17:10:12;28.77;;;13.93;;
20772;SDS011;10546;50.674;4.616;2023-05-06T17:12:38;9.88;;;4.15;;
20772;SDS011;10546;50.674;4.616;2023-05-06T17:15:05;25.88;;;12.98;;
20772;SDS011;10546;50.674;4.616;2023-05-06T17:17:31;13.05;;;7.43;;
20772;SDS011;10546;50.674;4.616;2023-05-06T17:19:57;15.60;;;6.10;;
20772;SDS011;10546;50.674;4.616;2023-05-06T17:22:23;13.82;;;7.60;;
20772;SDS011;10546;50.674;4.616;2023-05-06T17:24:49;11.70;;;4.15;;
20772;SDS011;10546;50.674;4.616;2023-05-06T17:27:15;11.10;;;2.28;;
20772;SDS011;10546;50.674;4.616;2023-05-06T17:29:42;7.65;;;2.28;;
20772;SDS011;10546;50.674;4.616;2023-05-06T17:32:08;8.32;;;2.53;;
20772;SDS011;10546;50.674;4.616;2023-05-06T17:34:34;12.15;;;3.45;;
20772;SDS011;10546;50.674;4.616;2023-05-06T17:37:00;7.30;;;3.00;;
20772;SDS011;10546;50.674;4.616;2023-05-06T17:39:28;9.30;;;2.63;;
20772;SDS011;10546;50.674;4.616;2023-05-06T17:41:56;7.53;;;3.58;;
20772;SDS011;10546;50.674;4.616;2023-05-06T17:44:23;13.55;;;3.50;;
20772;SDS011;10546;50.674;4.616;2023-05-06T17:46:48;7.55;;;3.25;;
20772;SDS011;10546;50.674;4.616;2023-05-06T17:49:14;13.52;;;4.55;;
20772;SDS011;10546;50.674;4.616;2023-05-06T17:51:40;15.32;;;6.15;;
20772;SDS011;10546;50.674;4.616;2023-05-06T17:54:09;15.13;;;6.35;;
20772;SDS011;10546;50.674;4.616;2023-05-06T17:56:35;13.35;;;6.47;;
20772;SDS011;10546;50.674;4.616;2023-05-06T17:59:01;23.52;;;5.00;;
20772;SDS011;10546;50.674;4.616;2023-05-06T18:01:29;15.32;;;4.75;;
20772;SDS011;10546;50.674;4.616;2023-05-06T18:03:55;8.95;;;3.67;;
20772;SDS011;10546;50.674;4.616;2023-05-06T18:06:21;13.88;;;5.05;;
20772;SDS011;10546;50.674;4.616;2023-05-06T18:08:47;15.35;;;7.07;;
20772;SDS011;10546;50.674;4.616;2023-05-06T18:11:12;13.13;;;4.95;;
20772;SDS011;10546;50.674;4.616;2023-05-06T18:13:38;8.98;;;2.78;;
20772;SDS011;10546;50.674;4.616;2023-05-06T18:16:04;7.45;;;2.20;;
20772;SDS011;10546;50.674;4.616;2023-05-06T18:18:30;8.88;;;2.58;;
20772;SDS011;10546;50.674;4.616;2023-05-06T18:20:55;11.45;;;2.55;;
20772;SDS011;10546;50.674;4.616;2023-05-06T18:23:21;8.93;;;2.88;;
20772;SDS011;10546;50.674;4.616;2023-05-06T18:25:47;10.23;;;2.53;;
20772;SDS011;10546;50.674;4.616;2023-05-06T18:28:12;15.57;;;3.33;;
20772;SDS011;10546;50.674;4.616;2023-05-06T18:30:38;6.25;;;2.63;;
20772;SDS011;10546;50.674;4.616;2023-05-06T18:33:04;11.38;;;3.10;;
20772;SDS011;10546;50.674;4.616;2023-05-06T18:35:29;8.52;;;3.10;;
20772;SDS011;10546;50.674;4.616;2023-05-06T18:37:55;32.78;;;15.65;;
20772;SDS011;10546;50.674;4.616;2023-05-06T18:40:21;35.78;;;18.75;;
20772;SDS011;10546;50.674;4.616;2023-05-06T18:42:47;22.63;;;13.18;;
20772;SDS011;10546;50.674;4.616;2023-05-06T18:45:12;19.35;;;9.30;;
20772;SDS011;10546;50.674;4.616;2023-05-06T18:47:38;21.17;;;10.77;;
20772;SDS011;10546;50.674;4.616;2023-05-06T18:50:05;19.35;;;9.48;;
20772;SDS011;10546;50.674;4.616;2023-05-06T18:52:32;24.02;;;11.43;;
20772;SDS011;10546;50.674;4.616;2023-05-06T18:54:59;15.43;;;8.40;;
20772;SDS011;10546;50.674;4.616;2023-05-06T18:57:28;25.52;;;12.48;;
20772;SDS011;10546;50.674;4.616;2023-05-06T18:59:53;28.23;;;12.10;;
20772;SDS011;10546;50.674;4.616;2023-05-06T19:02:20;42.45;;;20.13;;
20772;SDS011;10546;50.674;4.616;2023-05-06T19:04:46;37.75;;;16.65;;
20772;SDS011;10546;50.674;4.616;2023-05-06T19:07:12;49.17;;;26.45;;
20772;SDS011;10546;50.674;4.616;2023-05-06T19:09:40;33.90;;;16.52;;
20772;SDS011;10546;50.674;4.616;2023-05-06T19:12:07;24.83;;;11.02;;
20772;SDS011;10546;50.674;4.616;2023-05-06T19:14:32;10.45;;;3.85;;
20772;SDS011;10546;50.674;4.616;2023-05-06T19:17:01;8.57;;;3.55;;
20772;SDS011;10546;50.674;4.616;2023-05-06T19:19:27;13.05;;;3.72;;
20772;SDS011;10546;50.674;4.616;2023-05-06T19:21:53;5.95;;;2.60;;
20772;SDS011;10546;50.674;4.616;2023-05-06T19:24:18;10.50;;;2.40;;
20772;SDS011;10546;50.674;4.616;2023-05-06T19:26:44;11.25;;;3.05;;
20772;SDS011;10546;50.674;4.616;2023-05-06T19:29:10;7.90;;;2.97;;
20772;SDS011;10546;50.674;4.616;2023-05-06T19:31:36;9.90;;;3.10;;
20772;SDS011;10546;50.674;4.616;2023-05-06T19:34:02;9.98;;;2.92;;
20772;SDS011;10546;50.674;4.616;2023-05-06T19:36:28;9.20;;;3.08;;
20772;SDS011;10546;50.674;4.616;2023-05-06T19:38:53;9.65;;;3.17;;